Time;durP1;ratioP1;P1;durP2;ratioP2;P2;SDS_P1;SDS_P2;PMS_P1;PMS_P2;Temp;Humidity;BMP_temperature;BMP_pressure;BME280_temperature;BME280_humidity;BME280_pressure;Samples;Min_cycle;Max_cycle;Signal;HPM_P1;HPM_P2
2022/03/07 00:00:29;;;;;;;15.60;11.80;;;0.60;99.90;;;;;;5118809;28;20644;-64
2022/03/07 00:02:55;;;;;;;11.97;10.77;;;0.60;99.90;;;;;;5118482;28;20191;-62
2022/03/07 00:05:21;;;;;;;12.37;11.07;;;0.70;99.90;;;;;;5118120;28;20188;-63
2022/03/07 00:07:46;;;;;;;14.00;11.63;;;0.70;99.90;;;;;;5118028;28;20196;-63
2022/03/07 00:10:12;;;;;;;12.93;11.20;;;0.70;99.90;;;;;;5117924;28;20176;-62
2022/03/07 00:12:38;;;;;;;12.57;11.20;;;0.60;99.90;;;;;;5117899;28;20548;-63
2022/03/07 00:15:04;;;;;;;11.93;10.60;;;0.70;99.90;;;;;;5117840;28;20204;-62
2022/03/07 00:17:30;;;;;;;12.40;10.67;;;0.70;99.90;;;;;;5117882;28;20193;-63
2022/03/07 00:19:55;;;;;;;12.30;11.07;;;0.70;99.90;;;;;;5117813;28;20176;-63
2022/03/07 00:22:21;;;;;;;13.13;11.27;;;0.80;99.90;;;;;;5117743;28;20183;-63
2022/03/07 00:24:47;;;;;;;10.83;9.83;;;0.80;99.90;;;;;;5116302;28;20723;-63
2022/03/07 00:27:12;;;;;;;11.70;10.50;;;0.80;99.90;;;;;;5117770;28;20179;-63
2022/03/07 00:29:38;;;;;;;11.20;10.03;;;0.80;99.90;;;;;;5117580;28;20244;-63
2022/03/07 00:32:04;;;;;;;12.43;11.07;;;0.80;99.90;;;;;;5117622;28;20542;-63
2022/03/07 00:34:30;;;;;;;11.53;10.07;;;0.80;99.90;;;;;;5116258;28;20200;-63
2022/03/07 00:36:56;;;;;;;13.67;11.00;;;0.90;99.90;;;;;;5117433;28;20518;-63
2022/03/07 00:39:21;;;;;;;12.57;10.17;;;0.90;99.90;;;;;;5117319;28;20200;-63
2022/03/07 00:41:47;;;;;;;13.00;10.57;;;0.80;99.90;;;;;;5117325;28;20172;-63
2022/03/07 00:44:13;;;;;;;11.43;10.37;;;0.80;99.90;;;;;;5117534;27;20203;-63
2022/03/07 00:46:38;;;;;;;12.10;10.80;;;0.90;99.90;;;;;;5117602;28;20157;-63
2022/03/07 00:49:04;;;;;;;11.77;10.50;;;0.90;99.90;;;;;;5117480;28;20176;-63
2022/03/07 00:51:30;;;;;;;11.77;10.67;;;0.90;99.90;;;;;;5115719;28;20184;-63
2022/03/07 00:53:55;;;;;;;11.40;10.30;;;0.90;99.90;;;;;;5115657;28;20180;-63
2022/03/07 00:56:21;;;;;;;12.07;10.87;;;0.90;99.90;;;;;;5117340;28;20177;-64
2022/03/07 00:58:47;;;;;;;13.77;11.57;;;0.90;99.90;;;;;;5116946;28;20249;-64
2022/03/07 01:01:13;;;;;;;12.53;11.07;;;0.90;99.90;;;;;;5116944;28;20217;-63
2022/03/07 01:03:39;;;;;;;13.07;11.17;;;0.90;99.90;;;;;;5116972;28;20212;-63
2022/03/07 01:06:05;;;;;;;13.10;11.80;;;0.90;99.90;;;;;;5117068;28;20596;-63
2022/03/07 01:08:30;;;;;;;13.20;11.20;;;0.90;99.90;;;;;;5116109;28;20176;-63
2022/03/07 01:10:56;;;;;;;11.67;10.43;;;0.90;99.90;;;;;;5116774;28;20221;-63
2022/03/07 01:13:22;;;;;;;13.33;11.93;;;0.90;99.90;;;;;;5115554;28;20180;-63
2022/03/07 01:15:48;;;;;;;13.83;12.00;;;0.90;99.90;;;;;;5117087;28;20663;-64
2022/03/07 01:18:15;;;;;;;15.23;12.33;;;0.90;99.90;;;;;;5116606;28;20204;-63
2022/03/07 01:20:41;;;;;;;14.63;12.47;;;0.90;99.90;;;;;;5116744;28;20180;-63
2022/03/07 01:23:07;;;;;;;13.43;12.07;;;0.90;99.90;;;;;;5116693;28;20168;-63
2022/03/07 01:25:33;;;;;;;13.90;11.87;;;1.00;99.90;;;;;;5116374;28;20196;-63
2022/03/07 01:27:59;;;;;;;13.50;12.10;;;1.00;99.90;;;;;;5116410;28;20572;-63
2022/03/07 01:30:25;;;;;;;14.97;12.77;;;1.00;99.90;;;;;;5116478;28;20172;-63
2022/03/07 01:32:53;;;;;;;14.67;11.93;;;1.00;99.90;;;;;;5116082;28;20683;-64
2022/03/07 01:35:19;;;;;;;13.60;12.13;;;1.00;99.90;;;;;;5116336;28;20624;-64
2022/03/07 01:37:46;;;;;;;14.73;11.70;;;1.00;99.90;;;;;;5114874;28;20231;-64
2022/03/07 01:40:12;;;;;;;14.10;12.37;;;1.00;99.90;;;;;;5116397;28;20177;-63
2022/03/07 01:42:37;;;;;;;15.77;13.00;;;1.00;99.90;;;;;;5116466;28;20184;-64
2022/03/07 01:45:11;;;;;;;16.60;13.77;;;1.00;99.90;;;;;;5115986;28;20192;-63
2022/03/07 01:47:37;;;;;;;18.00;12.63;;;1.00;99.90;;;;;;5116395;28;20161;-67
2022/03/07 01:50:09;;;;;;;16.17;12.83;;;1.00;99.90;;;;;;5115982;28;20234;-64
2022/03/07 01:52:39;;;;;;;16.93;12.93;;;1.00;99.90;;;;;;5114600;28;20207;-63
2022/03/07 01:55:07;;;;;;;16.23;13.33;;;0.90;99.90;;;;;;5116154;28;20196;-63
2022/03/07 01:57:36;;;;;;;15.00;12.80;;;1.00;99.90;;;;;;5115650;28;20199;-63
2022/03/07 02:00:05;;;;;;;15.87;12.53;;;1.00;99.90;;;;;;5115824;28;20261;-64
2022/03/07 02:02:30;;;;;;;13.80;12.40;;;1.00;99.90;;;;;;5115744;28;20269;-63
2022/03/07 02:04:56;;;;;;;16.40;13.30;;;1.00;99.90;;;;;;5115652;28;20673;-63
2022/03/07 02:07:23;;;;;;;15.70;12.10;;;1.00;99.90;;;;;;5115871;28;20172;-64
2022/03/07 02:09:50;;;;;;;13.90;12.40;;;1.00;99.90;;;;;;5116123;28;20175;-64
2022/03/07 02:12:16;;;;;;;14.17;12.63;;;1.00;99.90;;;;;;5115419;28;20172;-64
2022/03/07 02:14:41;;;;;;;15.27;13.13;;;1.00;99.90;;;;;;5114142;28;20570;-63
2022/03/07 02:17:07;;;;;;;15.77;13.40;;;1.00;99.90;;;;;;5115389;28;20633;-64
2022/03/07 02:19:34;;;;;;;14.53;12.30;;;1.00;99.90;;;;;;5115307;28;20218;-63
2022/03/07 02:22:01;;;;;;;15.13;12.10;;;1.00;99.90;;;;;;5115329;28;20171;-63
2022/03/07 02:24:28;;;;;;;13.30;11.90;;;0.90;99.90;;;;;;5115483;28;20193;-63
2022/03/07 02:26:57;;;;;;;13.03;11.73;;;0.90;99.90;;;;;;5115157;28;20168;-64
2022/03/07 02:29:22;;;;;;;16.00;11.80;;;0.90;99.90;;;;;;5115295;28;20549;-63
2022/03/07 02:31:48;;;;;;;13.40;12.00;;;1.00;99.90;;;;;;5115130;28;20192;-63
2022/03/07 02:34:14;;;;;;;13.40;12.03;;;1.00;99.90;;;;;;5114948;27;20770;-63
2022/03/07 02:36:40;;;;;;;13.33;11.93;;;1.00;99.90;;;;;;5115211;28;20177;-63
2022/03/07 02:39:06;;;;;;;13.20;11.93;;;0.90;99.90;;;;;;5115466;28;20184;-64
2022/03/07 02:41:31;;;;;;;14.93;12.47;;;0.90;99.90;;;;;;5115096;28;20176;-64
2022/03/07 02:43:57;;;;;;;15.13;13.07;;;0.90;99.90;;;;;;5115101;28;20173;-62
2022/03/07 02:46:23;;;;;;;14.77;12.20;;;1.00;99.90;;;;;;5115120;28;20629;-64
2022/03/07 02:48:49;;;;;;;14.47;13.07;;;0.90;99.90;;;;;;5113564;28;20184;-64
2022/03/07 02:51:14;;;;;;;15.13;13.30;;;0.90;99.90;;;;;;5114748;28;20229;-64
2022/03/07 02:53:40;;;;;;;14.53;12.73;;;1.00;99.90;;;;;;5113349;28;20172;-63
2022/03/07 02:56:06;;;;;;;12.43;11.23;;;0.90;99.90;;;;;;5113312;28;20238;-63
2022/03/07 02:58:31;;;;;;;13.57;11.97;;;1.00;99.90;;;;;;5114421;28;20204;-64
2022/03/07 03:00:57;;;;;;;14.20;12.70;;;0.90;99.90;;;;;;5114638;28;20168;-63
2022/03/07 03:03:23;;;;;;;13.50;11.90;;;0.90;99.90;;;;;;5114801;28;20202;-64
2022/03/07 03:05:49;;;;;;;13.10;11.73;;;0.90;99.90;;;;;;5114361;28;20188;-63
2022/03/07 03:08:16;;;;;;;13.53;12.10;;;1.00;99.90;;;;;;5114364;28;20176;-64
2022/03/07 03:10:42;;;;;;;14.83;13.00;;;1.00;99.90;;;;;;5114440;28;20183;-64
2022/03/07 03:13:08;;;;;;;12.80;11.50;;;1.00;99.90;;;;;;5113082;28;20181;-64
2022/03/07 03:15:34;;;;;;;13.23;11.83;;;0.90;99.90;;;;;;5112968;28;20300;-63
2022/03/07 03:18:00;;;;;;;13.53;12.10;;;0.90;99.90;;;;;;5114161;28;20628;-64
2022/03/07 03:20:25;;;;;;;13.80;11.27;;;0.90;99.90;;;;;;5114284;28;20163;-64
2022/03/07 03:22:51;;;;;;;14.17;12.03;;;0.90;99.90;;;;;;5114416;28;20169;-63
2022/03/07 03:25:17;;;;;;;13.57;12.17;;;0.90;99.90;;;;;;5114085;28;20199;-64
2022/03/07 03:27:43;;;;;;;13.20;11.97;;;0.90;99.90;;;;;;5114223;28;20545;-63
2022/03/07 03:30:11;;;;;;;12.77;11.57;;;0.90;99.90;;;;;;5112699;28;20181;-63
2022/03/07 03:32:37;;;;;;;13.07;11.73;;;0.90;99.90;;;;;;5113970;28;20636;-63
2022/03/07 03:35:03;;;;;;;13.13;11.83;;;0.90;99.90;;;;;;5113847;27;20279;-61
2022/03/07 03:37:29;;;;;;;17.73;12.10;;;0.90;99.90;;;;;;5113956;28;20586;-64
2022/03/07 03:39:55;;;;;;;12.73;11.53;;;0.90;99.90;;;;;;5113957;28;20178;-64
2022/03/07 03:42:22;;;;;;;14.40;12.27;;;0.90;99.90;;;;;;5113837;28;20180;-64
2022/03/07 03:44:48;;;;;;;12.77;11.57;;;0.90;99.90;;;;;;5114162;28;20560;-66
2022/03/07 03:47:14;;;;;;;15.23;12.00;;;0.90;99.90;;;;;;5113923;28;20187;-64
2022/03/07 03:49:40;;;;;;;13.47;12.03;;;0.90;99.90;;;;;;5113958;28;20168;-63
2022/03/07 03:52:06;;;;;;;15.50;12.07;;;0.90;99.90;;;;;;5113814;28;20204;-64
2022/03/07 03:54:32;;;;;;;13.40;12.00;;;0.90;99.90;;;;;;5113746;28;20188;-64
2022/03/07 03:56:58;;;;;;;14.30;12.10;;;0.90;99.90;;;;;;5114099;28;20245;-64
2022/03/07 03:59:23;;;;;;;13.07;11.80;;;0.90;99.90;;;;;;5112528;28;20204;-63
2022/03/07 04:01:49;;;;;;;12.80;11.50;;;0.90;99.90;;;;;;5113752;28;20180;-63
2022/03/07 04:04:15;;;;;;;13.67;12.10;;;0.90;99.90;;;;;;5113933;28;20192;-63
2022/03/07 04:06:42;;;;;;;15.67;12.00;;;0.90;99.90;;;;;;5113779;28;20173;-64
2022/03/07 04:09:13;;;;;;;13.20;11.17;;;0.90;99.90;;;;;;5112476;28;20640;-63
2022/03/07 04:11:39;;;;;;;12.60;11.40;;;0.90;99.90;;;;;;5114099;28;20198;-63
2022/03/07 04:14:04;;;;;;;12.80;11.37;;;0.90;99.90;;;;;;5112473;28;20189;-63
2022/03/07 04:16:30;;;;;;;13.40;12.07;;;0.90;99.90;;;;;;5113745;28;20172;-63
2022/03/07 04:18:56;;;;;;;14.10;12.47;;;0.90;99.90;;;;;;5113518;28;20200;-63
2022/03/07 04:21:22;;;;;;;14.07;12.57;;;0.90;99.90;;;;;;5113612;28;20643;-63
2022/03/07 04:23:48;;;;;;;15.10;11.67;;;0.90;99.90;;;;;;5113418;28;20165;-63
2022/03/07 04:26:16;;;;;;;13.77;12.37;;;0.90;99.90;;;;;;5113839;28;20195;-62
2022/03/07 04:28:42;;;;;;;13.30;11.90;;;0.90;99.90;;;;;;5113556;28;20169;-64
2022/03/07 04:31:08;;;;;;;13.93;12.40;;;0.90;99.90;;;;;;5113552;28;20177;-62
2022/03/07 04:33:34;;;;;;;14.53;13.03;;;0.90;99.90;;;;;;5114140;28;20183;-64
2022/03/07 04:36:00;;;;;;;16.03;13.33;;;0.90;99.90;;;;;;5113354;28;20665;-63
2022/03/07 04:38:26;;;;;;;14.07;11.57;;;0.90;99.90;;;;;;5113659;28;20193;-63
2022/03/07 04:40:53;;;;;;;14.33;12.47;;;0.90;99.90;;;;;;5113485;28;20272;-63
2022/03/07 04:43:19;;;;;;;14.73;13.23;;;0.80;99.90;;;;;;5114866;28;20165;-63
2022/03/07 04:45:44;;;;;;;15.40;13.60;;;0.80;99.90;;;;;;5117027;28;20566;-63
2022/03/07 04:48:10;;;;;;;14.43;12.83;;;0.80;99.90;;;;;;5117196;28;20639;-63
2022/03/07 04:50:36;;;;;;;13.07;11.83;;;0.80;99.90;;;;;;5117359;28;20566;-64
2022/03/07 04:53:02;;;;;;;13.33;12.03;;;0.80;99.90;;;;;;5117105;28;20176;-63
2022/03/07 04:55:28;;;;;;;15.17;12.30;;;0.80;99.90;;;;;;5117313;28;20242;-63
2022/03/07 04:57:53;;;;;;;17.07;12.13;;;0.80;99.90;;;;;;5117484;28;20223;-63
2022/03/07 05:00:19;;;;;;;13.17;11.77;;;0.80;99.90;;;;;;5116907;27;20697;-63
2022/03/07 05:02:45;;;;;;;14.37;12.90;;;0.80;99.90;;;;;;5115718;28;20580;-63
2022/03/07 05:05:11;;;;;;;15.40;12.93;;;0.80;99.90;;;;;;5116982;28;20189;-62
2022/03/07 05:07:36;;;;;;;14.07;11.57;;;0.80;99.90;;;;;;5115544;28;20664;-63
2022/03/07 05:10:03;;;;;;;14.17;12.67;;;0.80;99.90;;;;;;5116874;28;20249;-63
2022/03/07 05:12:29;;;;;;;13.67;12.27;;;0.80;99.90;;;;;;5116625;28;20543;-64
2022/03/07 05:14:55;;;;;;;13.23;11.63;;;0.80;99.90;;;;;;5116551;28;20192;-64
2022/03/07 05:17:21;;;;;;;12.57;11.23;;;0.80;99.90;;;;;;5116468;28;20176;-64
2022/03/07 05:19:47;;;;;;;12.70;11.40;;;0.80;99.90;;;;;;5116471;28;20177;-64
2022/03/07 05:22:14;;;;;;;14.13;12.73;;;0.80;99.90;;;;;;5116602;28;20165;-64
2022/03/07 05:24:39;;;;;;;15.77;11.93;;;0.70;99.90;;;;;;5117330;28;20286;-63
2022/03/07 05:27:06;;;;;;;12.90;11.60;;;0.80;99.90;;;;;;5116724;28;20538;-63
2022/03/07 05:29:32;;;;;;;13.03;11.83;;;0.70;99.90;;;;;;5116833;28;20176;-63
2022/03/07 05:31:58;;;;;;;14.00;11.77;;;0.70;99.90;;;;;;5116628;28;20697;-62
2022/03/07 05:34:24;;;;;;;13.97;12.43;;;0.80;99.90;;;;;;5116882;28;20193;-63
2022/03/07 05:36:49;;;;;;;13.60;12.20;;;0.80;99.90;;;;;;5116950;28;20176;-63
2022/03/07 05:39:15;;;;;;;14.20;12.30;;;0.80;99.90;;;;;;5117068;28;20192;-63
2022/03/07 05:41:41;;;;;;;12.50;11.17;;;0.80;99.90;;;;;;5115551;28;20645;-63
2022/03/07 05:44:07;;;;;;;13.27;11.97;;;0.80;99.90;;;;;;5116150;28;20192;-63
2022/03/07 05:46:32;;;;;;;14.63;11.87;;;0.80;99.90;;;;;;5116564;28;20174;-63
2022/03/07 05:48:58;;;;;;;13.43;12.03;;;0.80;99.90;;;;;;5116333;28;20582;-63
2022/03/07 05:51:24;;;;;;;15.67;12.23;;;0.80;99.90;;;;;;5116293;28;20176;-63
2022/03/07 05:53:51;;;;;;;14.10;12.60;;;0.80;99.90;;;;;;5116014;28;20536;-63
2022/03/07 05:56:17;;;;;;;13.57;12.27;;;0.80;99.90;;;;;;5116124;28;20181;-63
2022/03/07 05:58:43;;;;;;;14.63;12.50;;;0.80;99.90;;;;;;5115974;28;20203;-63
2022/03/07 06:01:09;;;;;;;13.03;11.83;;;0.80;99.90;;;;;;5116325;28;20532;-63
2022/03/07 06:03:35;;;;;;;13.07;11.70;;;0.80;99.90;;;;;;5115633;28;20164;-64
2022/03/07 06:06:01;;;;;;;14.10;12.43;;;0.80;99.90;;;;;;5115515;28;20548;-63
2022/03/07 06:08:26;;;;;;;13.37;11.80;;;0.70;99.90;;;;;;5115510;28;20170;-63
2022/03/07 06:10:52;;;;;;;15.27;13.20;;;0.70;99.90;;;;;;5115418;28;20172;-64
2022/03/07 06:13:19;;;;;;;17.90;13.43;;;0.70;99.90;;;;;;5115477;28;20206;-65
2022/03/07 06:15:45;;;;;;;13.77;12.37;;;0.70;99.90;;;;;;5113966;28;20287;-65
2022/03/07 06:18:11;;;;;;;13.17;11.93;;;0.70;99.90;;;;;;5115233;28;20196;-65
2022/03/07 06:20:37;;;;;;;14.93;12.63;;;0.70;99.90;;;;;;5115255;28;20172;-64
2022/03/07 06:23:04;;;;;;;15.37;13.13;;;0.70;99.90;;;;;;5115534;28;20610;-64
2022/03/07 06:25:33;;;;;;;13.67;12.27;;;0.70;99.90;;;;;;5113734;28;20196;-64
2022/03/07 06:28:00;;;;;;;13.90;12.60;;;0.70;99.90;;;;;;5115342;28;20229;-64
2022/03/07 06:30:26;;;;;;;14.30;12.73;;;0.70;99.90;;;;;;5115176;28;20275;-64
2022/03/07 06:32:51;;;;;;;13.90;12.40;;;0.70;99.90;;;;;;5113657;28;20676;-63
2022/03/07 06:35:17;;;;;;;13.63;12.33;;;0.70;99.90;;;;;;5115211;28;20185;-63
2022/03/07 06:37:51;;;;;;;13.27;11.50;;;0.70;99.90;;;;;;5115010;28;20200;-64
2022/03/07 06:40:19;;;;;;;13.37;12.07;;;0.70;99.90;;;;;;5114940;28;20633;-64
2022/03/07 06:42:49;;;;;;;12.60;11.40;;;0.70;99.90;;;;;;5115120;28;20173;-64
2022/03/07 06:45:16;;;;;;;13.60;11.33;;;0.70;99.90;;;;;;5114797;28;20563;-63
2022/03/07 06:47:44;;;;;;;16.83;12.47;;;0.80;99.90;;;;;;5114798;28;20172;-64
2022/03/07 06:50:11;;;;;;;13.03;11.43;;;0.90;99.90;;;;;;5114765;28;20253;-63
2022/03/07 06:52:37;;;;;;;13.27;11.97;;;0.90;99.90;;;;;;5114659;28;20588;-64
2022/03/07 06:55:03;;;;;;;13.60;12.13;;;0.90;99.90;;;;;;5114598;28;20192;-64
2022/03/07 06:57:29;;;;;;;13.67;12.33;;;1.00;99.90;;;;;;5114778;28;20176;-64
2022/03/07 06:59:55;;;;;;;13.37;11.90;;;1.00;99.90;;;;;;5114622;28;20202;-64
2022/03/07 07:02:21;;;;;;;13.03;11.67;;;1.10;99.90;;;;;;5114844;28;20164;-63
2022/03/07 07:04:46;;;;;;;12.63;11.43;;;1.20;99.90;;;;;;5112969;28;20225;-64
2022/03/07 07:07:12;;;;;;;14.57;11.77;;;1.20;99.90;;;;;;5112513;28;20177;-64
2022/03/07 07:09:38;;;;;;;12.40;11.10;;;1.30;99.90;;;;;;5114288;28;20180;-64
2022/03/07 07:12:05;;;;;;;12.10;11.03;;;1.40;99.90;;;;;;5114581;28;20215;-64
2022/03/07 07:14:30;;;;;;;15.87;11.53;;;1.40;99.90;;;;;;5112937;28;20200;-63
2022/03/07 07:16:56;;;;;;;12.97;10.50;;;1.40;99.90;;;;;;5114144;28;20180;-63
2022/03/07 07:19:22;;;;;;;15.20;11.40;;;1.40;99.90;;;;;;5114119;28;20235;-64
2022/03/07 07:21:47;;;;;;;14.27;10.80;;;1.40;99.90;;;;;;5114141;28;20641;-64
2022/03/07 07:24:13;;;;;;;15.63;11.47;;;1.50;99.90;;;;;;5114193;28;20189;-63
2022/03/07 07:26:39;;;;;;;12.07;10.87;;;1.50;99.90;;;;;;5114297;28;20253;-63
2022/03/07 07:29:06;;;;;;;12.37;11.10;;;1.60;99.90;;;;;;5114348;28;20185;-64
2022/03/07 07:31:31;;;;;;;12.87;11.57;;;1.70;99.90;;;;;;5112687;28;20192;-64
2022/03/07 07:33:57;;;;;;;13.23;11.03;;;1.80;99.90;;;;;;5113943;28;20643;-64
2022/03/07 07:36:23;;;;;;;12.07;10.80;;;1.80;99.90;;;;;;5113967;28;20176;-63
2022/03/07 07:38:49;;;;;;;11.70;10.60;;;1.90;99.90;;;;;;5114011;28;20600;-63
2022/03/07 07:41:14;;;;;;;11.93;10.47;;;2.00;99.90;;;;;;5114261;28;20172;-64
2022/03/07 07:43:40;;;;;;;12.67;10.33;;;2.10;99.90;;;;;;5113942;28;20179;-64
2022/03/07 07:46:06;;;;;;;11.17;10.07;;;2.20;99.90;;;;;;5112667;28;20204;-64
2022/03/07 07:48:32;;;;;;;11.43;10.23;;;2.30;99.90;;;;;;5114225;28;20203;-63
2022/03/07 07:50:57;;;;;;;11.83;10.70;;;2.40;99.90;;;;;;5113960;28;20172;-63
2022/03/07 07:53:23;;;;;;;11.33;10.23;;;2.50;99.90;;;;;;5113889;28;20649;-65
2022/03/07 07:55:49;;;;;;;10.63;9.70;;;2.90;99.90;;;;;;5113849;28;20200;-64
2022/03/07 07:58:15;;;;;;;10.97;9.87;;;3.20;99.90;;;;;;5113987;28;20672;-64
2022/03/07 08:00:40;;;;;;;10.97;9.97;;;3.50;99.90;;;;;;5112871;28;20540;-63
2022/03/07 08:03:07;;;;;;;9.90;8.83;;;3.70;99.90;;;;;;5113956;28;20521;-64
2022/03/07 08:05:33;;;;;;;9.83;8.83;;;3.90;99.90;;;;;;5113876;28;20188;-64
2022/03/07 08:07:59;;;;;;;9.80;8.90;;;4.20;99.90;;;;;;5113935;28;20172;-63
2022/03/07 08:10:24;;;;;;;9.77;8.77;;;4.30;99.90;;;;;;5113944;28;20181;-64
2022/03/07 08:12:50;;;;;;;9.13;8.33;;;4.30;99.90;;;;;;5113848;28;20177;-64
2022/03/07 08:15:16;;;;;;;9.77;8.77;;;4.30;99.90;;;;;;5113793;28;20567;-66
2022/03/07 08:17:50;;;;;;;9.60;8.70;;;4.30;99.90;;;;;;5116299;28;20200;-63
2022/03/07 08:20:20;;;;;;;10.63;9.20;;;4.40;99.90;;;;;;5118234;28;20160;-64
2022/03/07 08:22:47;;;;;;;9.80;8.80;;;4.50;99.90;;;;;;5117820;28;20202;-65
2022/03/07 08:25:13;;;;;;;10.30;9.30;;;4.80;99.90;;;;;;5116383;28;20278;-64
2022/03/07 08:27:40;;;;;;;8.83;8.13;;;5.50;99.90;;;;;;5117892;28;20180;-64
2022/03/07 08:30:12;;;;;;;8.30;7.50;;;7.00;99.90;;;;;;5117689;28;20641;-66
2022/03/07 08:32:38;;;;;;;8.00;7.00;;;8.70;96.70;;;;;;5117723;28;20188;-63
2022/03/07 08:35:05;;;;;;;8.45;7.50;;;10.20;90.90;;;;;;5117651;28;20192;-62
2022/03/07 08:37:32;;;;;;;6.68;6.03;;;11.20;83.90;;;;;;5117602;28;20176;-62
2022/03/07 08:39:59;;;;;;;6.78;6.20;;;11.90;80.00;;;;;;5117583;28;20175;-62
2022/03/07 08:42:24;;;;;;;8.77;6.97;;;12.40;76.30;;;;;;5116024;28;20204;-63
2022/03/07 08:44:52;;;;;;;6.63;6.03;;;12.90;77.90;;;;;;5117114;28;20219;-63
2022/03/07 08:47:18;;;;;;;6.32;5.72;;;13.10;72.40;;;;;;5117351;28;20168;-63
2022/03/07 08:49:44;;;;;;;7.20;5.75;;;13.20;71.50;;;;;;5117356;28;20181;-63
2022/03/07 08:52:09;;;;;;;5.85;5.22;;;13.40;67.60;;;;;;5117387;28;20176;-63
2022/03/07 08:54:36;;;;;;;5.95;5.45;;;13.30;67.40;;;;;;5117316;28;20196;-63
2022/03/07 08:57:02;;;;;;;5.40;4.90;;;13.50;68.40;;;;;;5117561;28;20225;-63
2022/03/07 08:59:28;;;;;;;5.85;5.28;;;13.60;70.90;;;;;;5117433;27;20203;-62
2022/03/07 09:01:57;;;;;;;5.75;5.13;;;13.50;68.40;;;;;;5117104;28;20570;-62
2022/03/07 09:04:24;;;;;;;6.32;5.30;;;13.10;67.60;;;;;;5116791;28;20184;-62
2022/03/07 09:06:53;;;;;;;5.72;5.18;;;12.80;66.50;;;;;;5117146;28;20172;-62
2022/03/07 09:09:19;;;;;;;5.88;5.35;;;12.50;67.60;;;;;;5116852;28;20547;-63
2022/03/07 09:11:45;;;;;;;5.85;5.35;;;12.40;68.20;;;;;;5116925;28;20182;-62
2022/03/07 09:14:11;;;;;;;5.78;5.15;;;12.20;72.10;;;;;;5117271;28;20222;-61
2022/03/07 09:16:37;;;;;;;5.60;5.20;;;12.00;72.40;;;;;;5116814;28;20173;-62
2022/03/07 09:19:03;;;;;;;5.88;5.38;;;11.80;70.50;;;;;;5117149;28;20196;-62
2022/03/07 09:21:29;;;;;;;5.50;4.82;;;11.70;76.60;;;;;;5116561;28;20241;-62
2022/03/07 09:23:55;;;;;;;5.95;5.35;;;11.30;72.70;;;;;;5116415;28;20172;-62
2022/03/07 09:26:21;;;;;;;6.35;5.53;;;11.00;73.80;;;;;;5116732;28;20526;-62
2022/03/07 09:28:46;;;;;;;7.60;5.72;;;10.40;75.60;;;;;;5114374;28;20176;-62
2022/03/07 09:31:13;;;;;;;6.88;5.80;;;9.90;82.90;;;;;;5116817;28;20180;-62
2022/03/07 09:33:39;;;;;;;6.15;5.60;;;9.50;80.00;;;;;;5116380;28;20165;-62
2022/03/07 09:36:05;;;;;;;6.85;5.80;;;9.00;84.00;;;;;;5116277;28;20219;-62
2022/03/07 09:38:31;;;;;;;5.73;5.20;;;8.60;83.60;;;;;;5116198;27;20254;-61
2022/03/07 09:40:57;;;;;;;6.50;5.60;;;7.90;87.00;;;;;;5116127;28;20186;-62
2022/03/07 09:43:23;;;;;;;7.10;6.47;;;7.60;88.20;;;;;;5116149;28;20251;-61
2022/03/07 09:45:49;;;;;;;8.03;6.10;;;7.30;90.20;;;;;;5116003;28;20745;-62
2022/03/07 09:48:15;;;;;;;6.37;5.80;;;7.10;91.80;;;;;;5116321;28;20536;-62
2022/03/07 09:50:43;;;;;;;7.50;6.73;;;7.00;91.70;;;;;;5116239;27;20179;-61
2022/03/07 09:53:09;;;;;;;6.97;6.30;;;6.90;93.00;;;;;;5116013;28;20653;-62
2022/03/07 09:55:36;;;;;;;6.90;6.30;;;6.80;93.90;;;;;;5114696;28;20200;-62
2022/03/07 09:58:05;;;;;;;7.27;6.57;;;6.80;93.00;;;;;;5115846;27;20196;-61
2022/03/07 10:00:31;;;;;;;6.83;6.23;;;6.80;93.80;;;;;;5115766;28;20251;-62
2022/03/07 10:03:05;;;;;;;7.37;6.67;;;6.80;94.80;;;;;;5116385;28;20207;-61
2022/03/07 10:05:36;;;;;;;7.00;6.27;;;6.90;94.10;;;;;;5116517;28;20283;-62
2022/03/07 10:08:05;;;;;;;6.50;6.00;;;6.80;93.80;;;;;;5116153;28;20161;-62
2022/03/07 10:10:40;;;;;;;6.93;6.33;;;6.70;92.50;;;;;;5114523;28;20183;-62
2022/03/07 10:13:11;;;;;;;6.77;6.17;;;6.70;94.20;;;;;;5115548;28;20167;-61
2022/03/07 10:15:38;;;;;;;6.60;6.10;;;6.70;92.30;;;;;;5115860;28;20188;-61
2022/03/07 10:18:05;;;;;;;7.20;6.53;;;6.70;94.70;;;;;;5114103;28;20239;-61
2022/03/07 10:20:31;;;;;;;7.00;6.30;;;6.90;96.20;;;;;;5115417;28;20513;-61
2022/03/07 10:23:01;;;;;;;7.00;6.30;;;7.10;95.80;;;;;;5115417;28;20168;-62
2022/03/07 10:25:30;;;;;;;7.80;6.10;;;7.10;93.60;;;;;;5115362;28;20192;-61
2022/03/07 10:27:56;;;;;;;7.00;6.30;;;7.20;94.10;;;;;;5114133;28;20188;-62
2022/03/07 10:30:26;;;;;;;6.70;6.10;;;7.20;93.50;;;;;;5115462;28;20259;-62
2022/03/07 10:32:59;;;;;;;6.30;5.80;;;7.40;92.70;;;;;;5115481;28;20230;-62
2022/03/07 10:35:29;;;;;;;7.10;6.40;;;7.40;92.30;;;;;;5115298;28;20231;-61
2022/03/07 10:37:58;;;;;;;6.43;5.93;;;7.30;93.00;;;;;;5114106;28;20207;-61
2022/03/07 10:40:24;;;;;;;6.50;6.00;;;7.40;92.40;;;;;;5114180;28;20290;-62
2022/03/07 10:42:53;;;;;;;6.53;5.93;;;7.40;93.40;;;;;;5115692;28;20171;-62
2022/03/07 10:45:19;;;;;;;7.47;6.07;;;7.40;91.90;;;;;;5115393;28;20271;-61
2022/03/07 10:47:52;;;;;;;6.47;5.87;;;7.40;92.70;;;;;;5113637;28;20641;-62
2022/03/07 10:50:20;;;;;;;6.47;5.83;;;7.30;91.80;;;;;;5114982;28;20153;-62
2022/03/07 10:52:46;;;;;;;7.73;5.80;;;7.30;91.80;;;;;;5114833;28;20176;-62
2022/03/07 10:55:13;;;;;;;6.70;6.00;;;7.50;92.00;;;;;;5114652;28;20197;-62
2022/03/07 10:57:42;;;;;;;6.50;6.00;;;7.50;92.00;;;;;;5114872;28;20176;-62
2022/03/07 11:00:15;;;;;;;8.10;6.13;;;7.70;92.00;;;;;;5114720;28;20214;-61
2022/03/07 11:02:46;;;;;;;7.87;6.10;;;8.00;91.70;;;;;;5113918;28;20161;-61
2022/03/07 11:05:13;;;;;;;7.20;6.10;;;8.10;90.00;;;;;;5115058;28;20212;-62
2022/03/07 11:07:42;;;;;;;6.80;6.13;;;8.10;90.80;;;;;;5114750;28;20169;-61
2022/03/07 11:10:10;;;;;;;6.43;5.83;;;8.20;90.20;;;;;;5114868;28;20173;-61
2022/03/07 11:12:36;;;;;;;6.40;5.80;;;8.20;87.70;;;;;;5114825;28;20172;-62
2022/03/07 11:15:08;;;;;;;7.77;5.50;;;8.40;90.70;;;;;;5113264;28;20189;-62
2022/03/07 11:17:40;;;;;;;7.43;5.53;;;8.70;91.70;;;;;;5115011;28;20649;-63
2022/03/07 11:20:07;;;;;;;6.20;5.70;;;9.00;90.00;;;;;;5113474;28;20177;-62
2022/03/07 11:22:34;;;;;;;6.27;5.77;;;9.10;84.90;;;;;;5114316;28;20195;-62
2022/03/07 11:25:01;;;;;;;6.10;5.50;;;9.30;86.70;;;;;;5114329;28;20219;-61
2022/03/07 11:27:28;;;;;;;6.13;5.63;;;9.40;87.00;;;;;;5114190;28;20191;-62
2022/03/07 11:29:55;;;;;;;5.70;5.30;;;9.50;84.00;;;;;;5114112;28;20168;-62
2022/03/07 11:32:21;;;;;;;6.97;5.87;;;9.60;82.90;;;;;;5112723;28;20196;-62
2022/03/07 11:35:02;;;;;;;6.17;5.67;;;9.70;82.50;;;;;;5113940;28;20668;-62
2022/03/07 11:37:32;;;;;;;6.07;5.57;;;9.90;83.90;;;;;;5114632;28;20156;-62
2022/03/07 11:39:59;;;;;;;6.73;5.57;;;9.80;81.10;;;;;;5114395;28;20156;-62
2022/03/07 11:42:36;;;;;;;7.90;5.27;;;9.80;83.20;;;;;;5114103;28;20180;-61
2022/03/07 11:45:22;;;;;;;6.10;5.50;;;10.00;82.00;;;;;;5114083;28;20188;-62
2022/03/07 11:47:49;;;;;;;6.13;5.07;;;10.20;82.30;;;;;;5114175;28;20180;-62
2022/03/07 11:50:19;;;;;;;5.80;5.30;;;10.40;78.80;;;;;;5113874;28;20180;-61
2022/03/07 11:52:46;;;;;;;5.97;5.38;;;10.60;79.10;;;;;;5113744;28;20547;-62
2022/03/07 11:55:16;;;;;;;6.15;5.55;;;10.80;80.70;;;;;;5113792;28;20196;-63
2022/03/07 11:57:47;;;;;;;6.47;5.43;;;10.70;79.90;;;;;;5114261;28;20566;-62
2022/03/07 12:00:18;;;;;;;6.00;5.35;;;10.80;79.00;;;;;;5112638;28;20172;-62
2022/03/07 12:02:54;;;;;;;5.72;5.20;;;11.00;76.40;;;;;;5114024;28;20161;-61
2022/03/07 12:05:31;;;;;;;8.13;5.38;;;11.20;77.50;;;;;;5113651;28;20204;-62
2022/03/07 12:08:13;;;;;;;5.88;4.95;;;11.50;78.80;;;;;;5113724;28;20200;-62
2022/03/07 12:10:59;;;;;;;5.40;4.90;;;11.40;76.40;;;;;;5113718;28;20168;-62
2022/03/07 12:13:26;;;;;;;5.72;5.22;;;11.40;74.20;;;;;;5113679;28;20590;-62
2022/03/07 12:15:54;;;;;;;6.63;5.18;;;11.40;73.70;;;;;;5113628;28;20217;-62
2022/03/07 12:18:21;;;;;;;7.65;5.88;;;11.60;76.00;;;;;;5113575;28;20199;-62
2022/03/07 12:20:48;;;;;;;7.55;5.50;;;11.60;76.50;;;;;;5113650;28;20168;-63
2022/03/07 12:23:17;;;;;;;5.78;5.18;;;11.60;79.00;;;;;;5113638;28;20196;-62
2022/03/07 12:25:43;;;;;;;6.38;5.22;;;12.00;73.50;;;;;;5113463;28;20223;-62
2022/03/07 12:28:09;;;;;;;5.43;4.93;;;12.40;75.90;;;;;;5114038;28;20207;-62
2022/03/07 12:30:35;;;;;;;5.13;4.70;;;12.60;71.80;;;;;;5113436;28;20208;-63
2022/03/07 12:33:08;;;;;;;5.30;4.80;;;12.60;74.90;;;;;;5113413;28;20189;-62
2022/03/07 12:35:34;;;;;;;5.53;5.03;;;12.70;70.80;;;;;;5113730;28;20200;-61
2022/03/07 12:38:01;;;;;;;5.53;4.53;;;12.80;72.70;;;;;;5113375;28;20242;-62
2022/03/07 12:40:27;;;;;;;5.50;5.00;;;13.10;71.40;;;;;;5113440;28;20192;-62